RYR40AU EIDW-EGKK
Flight info
| Callsign | RYR40AU |
|---|---|
| Flight time | 1h 2m |
| Altitude | 31000 |
| Route | ENDEQ3J ENDEQ Q36 EPOXI L15 KEPAD L151 DISIT |
| Aircraft | B738/M-SDE2E3FGHIRWXY/LB1 |
Departure
| Time | 2026-05-05 20:15 |
|---|---|
| Airport | Dublin Airport (EIDW) |
Arrival
| Time | 2026-05-05 21:17 |
|---|---|
| Airport | London Gatwick Airport (EGKK) |
| Time | Latitude | Longitude | Altitude | Speed | Heading |
|---|---|---|---|---|---|
| 2026-05-05 19:34 | 53.42553 | -6.24620 | 224 ft | 0 kts | 19° |
| 2026-05-05 19:58 | 53.42551 | -6.24622 | 224 ft | 1 kts | 20° |
| 2026-05-05 19:58 | 53.42535 | -6.24632 | 227 ft | 3 kts | 27° |
| 2026-05-05 19:59 | 53.42518 | -6.24649 | 226 ft | 3 kts | 37° |
| 2026-05-05 19:59 | 53.42502 | -6.24671 | 226 ft | 3 kts | 46° |
| 2026-05-05 19:59 | 53.42489 | -6.24697 | 224 ft | 3 kts | 54° |
| 2026-05-05 19:59 | 53.42478 | -6.24725 | 226 ft | 3 kts | 56° |
| 2026-05-05 20:00 | 53.42466 | -6.24751 | 224 ft | 3 kts | 36° |
| 2026-05-05 20:00 | 53.42457 | -6.24761 | 226 ft | 1 kts | 339° |
| 2026-05-05 20:00 | 53.42455 | -6.24760 | 226 ft | 0 kts | 334° |
| 2026-05-05 20:07 | 53.42458 | -6.24763 | 205 ft | 1 kts | 334° |
| 2026-05-05 20:07 | 53.42482 | -6.24781 | 197 ft | 7 kts | 336° |
| 2026-05-05 20:07 | 53.42541 | -6.24823 | 226 ft | 11 kts | 337° |
| 2026-05-05 20:08 | 53.42552 | -6.24935 | 226 ft | 12 kts | 248° |
| 2026-05-05 20:08 | 53.42594 | -6.25029 | 224 ft | 12 kts | 335° |
| 2026-05-05 20:08 | 53.42667 | -6.25082 | 224 ft | 12 kts | 336° |
| 2026-05-05 20:08 | 53.42720 | -6.25166 | 224 ft | 11 kts | 295° |
| 2026-05-05 20:09 | 53.42798 | -6.25245 | 224 ft | 16 kts | 337° |
| 2026-05-05 20:09 | 53.42912 | -6.25327 | 224 ft | 18 kts | 335° |
| 2026-05-05 20:09 | 53.43038 | -6.25434 | 225 ft | 21 kts | 336° |
| 2026-05-05 20:09 | 53.43173 | -6.25533 | 224 ft | 21 kts | 336° |
| 2026-05-05 20:10 | 53.43307 | -6.25612 | 226 ft | 20 kts | 339° |
| 2026-05-05 20:10 | 53.43387 | -6.25642 | 224 ft | 11 kts | 26° |
| 2026-05-05 20:10 | 53.43407 | -6.25529 | 224 ft | 11 kts | 94° |
| 2026-05-05 20:10 | 53.43400 | -6.25406 | 224 ft | 10 kts | 95° |
| 2026-05-05 20:11 | 53.43393 | -6.25287 | 224 ft | 10 kts | 95° |
| 2026-05-05 20:11 | 53.43387 | -6.25159 | 226 ft | 12 kts | 95° |
| 2026-05-05 20:11 | 53.43377 | -6.24989 | 224 ft | 18 kts | 95° |
| 2026-05-05 20:11 | 53.43365 | -6.24760 | 224 ft | 20 kts | 95° |
| 2026-05-05 20:12 | 53.43352 | -6.24533 | 224 ft | 19 kts | 95° |
| 2026-05-05 20:12 | 53.43340 | -6.24313 | 224 ft | 19 kts | 95° |
| 2026-05-05 20:12 | 53.43328 | -6.24100 | 225 ft | 18 kts | 95° |
| 2026-05-05 20:12 | 53.43320 | -6.23924 | 223 ft | 13 kts | 83° |
| 2026-05-05 20:13 | 53.43393 | -6.23855 | 221 ft | 14 kts | 4° |
| 2026-05-05 20:13 | 53.43479 | -6.23851 | 214 ft | 5 kts | 346° |
| 2026-05-05 20:13 | 53.43485 | -6.23869 | 214 ft | 0 kts | 278° |
| 2026-05-05 20:14 | 53.43487 | -6.23894 | 216 ft | 22 kts | 278° |
| 2026-05-05 20:14 | 53.43531 | -6.24697 | 225 ft | 110 kts | 275° |
| 2026-05-05 20:15 | 53.43619 | -6.26336 | 280 ft | 170 kts | 275° |
| 2026-05-05 20:15 | 53.43720 | -6.28408 | 968 ft | 186 kts | 274° |
| 2026-05-05 20:15 | 53.43829 | -6.30614 | 1852 ft | 192 kts | 282° |
| 2026-05-05 20:15 | 53.44262 | -6.32724 | 2770 ft | 195 kts | 301° |
| 2026-05-05 20:16 | 53.45116 | -6.34531 | 3393 ft | 201 kts | 323° |
| 2026-05-05 20:16 | 53.46293 | -6.35733 | 4216 ft | 198 kts | 340° |
| 2026-05-05 20:16 | 53.47703 | -6.36166 | 4652 ft | 218 kts | 359° |
| 2026-05-05 20:16 | 53.49271 | -6.35859 | 5122 ft | 239 kts | 12° |
| 2026-05-05 20:17 | 53.50875 | -6.34864 | 5843 ft | 250 kts | 15° |
| 2026-05-05 20:17 | 53.52579 | -6.34122 | 6522 ft | 263 kts | 22° |
| 2026-05-05 20:17 | 53.53985 | -6.32108 | 7314 ft | 276 kts | 57° |
| 2026-05-05 20:17 | 53.54496 | -6.28998 | 8173 ft | 284 kts | 91° |
| 2026-05-05 20:18 | 53.53974 | -6.25781 | 8799 ft | 290 kts | 114° |
| 2026-05-05 20:18 | 53.53164 | -6.22666 | 9043 ft | 290 kts | 108° |
| 2026-05-05 20:18 | 53.52667 | -6.19399 | 9047 ft | 289 kts | 98° |
| 2026-05-05 20:18 | 53.52433 | -6.16030 | 9061 ft | 291 kts | 92° |
| 2026-05-05 20:19 | 53.52323 | -6.12636 | 9065 ft | 292 kts | 90° |
| 2026-05-05 20:19 | 53.52255 | -6.09264 | 9060 ft | 293 kts | 90° |
| 2026-05-05 20:19 | 53.52103 | -6.05847 | 9098 ft | 296 kts | 99° |
| 2026-05-05 20:19 | 53.51633 | -6.02447 | 9722 ft | 300 kts | 103° |
| 2026-05-05 20:20 | 53.51098 | -5.99068 | 10613 ft | 303 kts | 104° |
| 2026-05-05 20:20 | 53.50546 | -5.95503 | 10888 ft | 328 kts | 103° |
| 2026-05-05 20:20 | 53.49979 | -5.91697 | 11404 ft | 342 kts | 103° |
| 2026-05-05 20:20 | 53.49408 | -5.87790 | 12177 ft | 347 kts | 103° |
| 2026-05-05 20:21 | 53.48835 | -5.83829 | 12989 ft | 351 kts | 102° |
| 2026-05-05 20:21 | 53.48306 | -5.79803 | 13774 ft | 356 kts | 101° |
| 2026-05-05 20:21 | 53.47801 | -5.75697 | 14483 ft | 361 kts | 101° |
| 2026-05-05 20:21 | 53.47303 | -5.71604 | 15211 ft | 364 kts | 101° |
| 2026-05-05 20:22 | 53.46790 | -5.67418 | 15958 ft | 368 kts | 101° |
| 2026-05-05 20:22 | 53.46265 | -5.63192 | 16682 ft | 372 kts | 101° |
| 2026-05-05 20:22 | 53.45729 | -5.58918 | 17393 ft | 376 kts | 102° |
| 2026-05-05 20:22 | 53.45184 | -5.54601 | 18111 ft | 380 kts | 102° |
| 2026-05-05 20:23 | 53.44634 | -5.50236 | 18753 ft | 384 kts | 101° |
| 2026-05-05 20:23 | 53.44313 | -5.45767 | 19348 ft | 388 kts | 92° |
| 2026-05-05 20:23 | 53.44215 | -5.41221 | 19953 ft | 392 kts | 90° |
| 2026-05-05 20:23 | 53.44164 | -5.36682 | 20535 ft | 396 kts | 90° |
| 2026-05-05 20:24 | 53.44097 | -5.32040 | 21121 ft | 401 kts | 91° |
| 2026-05-05 20:24 | 53.43997 | -5.27345 | 21701 ft | 405 kts | 92° |
| 2026-05-05 20:24 | 53.43873 | -5.22609 | 22271 ft | 409 kts | 92° |
| 2026-05-05 20:24 | 53.43737 | -5.17817 | 22831 ft | 413 kts | 92° |
| 2026-05-05 20:25 | 53.43596 | -5.12983 | 23385 ft | 417 kts | 92° |
| 2026-05-05 20:25 | 53.43454 | -5.08104 | 23883 ft | 421 kts | 92° |
| 2026-05-05 20:25 | 53.43310 | -5.03186 | 24374 ft | 424 kts | 92° |
| 2026-05-05 20:25 | 53.43165 | -4.98243 | 24850 ft | 426 kts | 92° |
| 2026-05-05 20:26 | 53.43020 | -4.93331 | 25317 ft | 428 kts | 92° |
| 2026-05-05 20:26 | 53.42869 | -4.88325 | 25770 ft | 431 kts | 93° |
| 2026-05-05 20:26 | 53.42711 | -4.83286 | 26216 ft | 434 kts | 93° |
| 2026-05-05 20:26 | 53.42542 | -4.78224 | 26700 ft | 436 kts | 93° |
| 2026-05-05 20:27 | 53.42366 | -4.73165 | 27313 ft | 433 kts | 93° |
| 2026-05-05 20:27 | 53.42189 | -4.68141 | 27988 ft | 430 kts | 93° |
| 2026-05-05 20:27 | 53.42012 | -4.63147 | 28607 ft | 429 kts | 94° |
| 2026-05-05 20:27 | 53.41834 | -4.58160 | 29153 ft | 428 kts | 94° |
| 2026-05-05 20:28 | 53.41657 | -4.53243 | 29690 ft | 428 kts | 94° |
| 2026-05-05 20:28 | 53.41476 | -4.48271 | 30236 ft | 427 kts | 94° |
| 2026-05-05 20:28 | 53.41294 | -4.43316 | 30716 ft | 425 kts | 94° |
| 2026-05-05 20:28 | 53.41110 | -4.38365 | 31050 ft | 426 kts | 94° |
| 2026-05-05 20:29 | 53.40924 | -4.33410 | 31021 ft | 425 kts | 94° |
| 2026-05-05 20:29 | 53.40548 | -4.23538 | 31052 ft | 425 kts | 94° |
| 2026-05-05 20:30 | 53.40165 | -4.13718 | 31053 ft | 426 kts | 94° |
| 2026-05-05 20:30 | 53.39772 | -4.03800 | 31049 ft | 426 kts | 94° |
| 2026-05-05 20:31 | 53.39372 | -3.93893 | 31045 ft | 426 kts | 94° |
| 2026-05-05 20:31 | 53.38984 | -3.83978 | 31041 ft | 426 kts | 94° |
| 2026-05-05 20:32 | 53.38592 | -3.74087 | 31050 ft | 425 kts | 94° |
| 2026-05-05 20:32 | 53.37971 | -3.64328 | 31035 ft | 424 kts | 104° |
| 2026-05-05 20:32 | 53.37068 | -3.59649 | 31038 ft | 422 kts | 115° |
| 2026-05-05 20:33 | 53.35872 | -3.55176 | 31050 ft | 421 kts | 116° |
| 2026-05-05 20:33 | 53.33393 | -3.46315 | 31034 ft | 420 kts | 122° |
| 2026-05-05 20:33 | 53.31746 | -3.42317 | 31034 ft | 416 kts | 133° |
| 2026-05-05 20:34 | 53.29831 | -3.38695 | 31054 ft | 415 kts | 134° |
| 2026-05-05 20:34 | 53.25974 | -3.31572 | 31043 ft | 416 kts | 134° |
| 2026-05-05 20:35 | 53.22125 | -3.24349 | 31049 ft | 417 kts | 134° |
| 2026-05-05 20:35 | 53.18281 | -3.17101 | 31043 ft | 417 kts | 134° |
| 2026-05-05 20:36 | 53.14429 | -3.09868 | 31048 ft | 417 kts | 134° |
| 2026-05-05 20:36 | 53.10578 | -3.02655 | 31052 ft | 417 kts | 134° |
| 2026-05-05 20:37 | 53.06752 | -2.95505 | 31048 ft | 416 kts | 134° |
| 2026-05-05 20:37 | 53.02902 | -2.88335 | 31045 ft | 415 kts | 134° |
| 2026-05-05 20:38 | 52.99056 | -2.81194 | 31031 ft | 414 kts | 134° |
| 2026-05-05 20:38 | 52.95216 | -2.74081 | 31018 ft | 413 kts | 133° |
| 2026-05-05 20:39 | 52.91406 | -2.67039 | 31023 ft | 413 kts | 133° |
| 2026-05-05 20:39 | 52.88473 | -2.61629 | 31022 ft | 412 kts | 133° |
| 2026-05-05 20:40 | 52.84634 | -2.54566 | 31019 ft | 412 kts | 133° |
| 2026-05-05 20:40 | 52.80714 | -2.47656 | 31020 ft | 412 kts | 140° |
| 2026-05-05 20:41 | 52.76097 | -2.42373 | 30830 ft | 397 kts | 148° |
| 2026-05-05 20:41 | 52.73826 | -2.39967 | 30582 ft | 390 kts | 148° |
| 2026-05-05 20:41 | 52.71554 | -2.37528 | 30240 ft | 388 kts | 148° |
| 2026-05-05 20:41 | 52.69309 | -2.35087 | 29873 ft | 386 kts | 147° |
| 2026-05-05 20:42 | 52.67077 | -2.32648 | 29482 ft | 383 kts | 147° |
| 2026-05-05 20:42 | 52.64865 | -2.30224 | 29095 ft | 381 kts | 147° |
| 2026-05-05 20:42 | 52.62670 | -2.27808 | 28692 ft | 379 kts | 147° |
| 2026-05-05 20:42 | 52.60486 | -2.25405 | 28344 ft | 376 kts | 147° |
| 2026-05-05 20:43 | 52.58321 | -2.23023 | 27974 ft | 373 kts | 147° |
| 2026-05-05 20:43 | 52.56170 | -2.20661 | 27629 ft | 370 kts | 148° |
| 2026-05-05 20:43 | 52.54032 | -2.18318 | 27267 ft | 368 kts | 148° |
| 2026-05-05 20:43 | 52.51938 | -2.16025 | 26924 ft | 366 kts | 148° |
| 2026-05-05 20:44 | 52.49822 | -2.13711 | 26572 ft | 364 kts | 148° |
| 2026-05-05 20:44 | 52.47719 | -2.11413 | 26233 ft | 362 kts | 148° |
| 2026-05-05 20:44 | 52.45629 | -2.09133 | 25886 ft | 360 kts | 148° |
| 2026-05-05 20:44 | 52.43548 | -2.06866 | 25544 ft | 358 kts | 148° |
| 2026-05-05 20:45 | 52.39418 | -2.02373 | 24888 ft | 355 kts | 148° |
| 2026-05-05 20:45 | 52.37362 | -2.00137 | 24557 ft | 354 kts | 148° |
| 2026-05-05 20:45 | 52.35316 | -1.97916 | 24215 ft | 352 kts | 149° |
| 2026-05-05 20:46 | 52.33302 | -1.95733 | 23884 ft | 351 kts | 149° |
| 2026-05-05 20:46 | 52.31270 | -1.93533 | 23545 ft | 350 kts | 149° |
| 2026-05-05 20:46 | 52.29239 | -1.91337 | 23152 ft | 349 kts | 149° |
| 2026-05-05 20:46 | 52.27218 | -1.89155 | 22788 ft | 348 kts | 149° |
| 2026-05-05 20:47 | 52.25205 | -1.86990 | 22455 ft | 345 kts | 149° |
| 2026-05-05 20:47 | 52.23208 | -1.84854 | 22121 ft | 343 kts | 149° |
| 2026-05-05 20:47 | 52.21216 | -1.82728 | 21782 ft | 341 kts | 149° |
| 2026-05-05 20:47 | 52.19238 | -1.80618 | 21458 ft | 339 kts | 149° |
| 2026-05-05 20:48 | 52.17294 | -1.78545 | 21132 ft | 337 kts | 149° |
| 2026-05-05 20:48 | 52.15335 | -1.76457 | 20805 ft | 336 kts | 148° |
| 2026-05-05 20:48 | 52.13386 | -1.74382 | 20485 ft | 334 kts | 148° |
| 2026-05-05 20:48 | 52.11443 | -1.72317 | 20166 ft | 333 kts | 148° |
| 2026-05-05 20:49 | 52.09506 | -1.70260 | 19858 ft | 331 kts | 148° |
| 2026-05-05 20:49 | 52.07583 | -1.68219 | 19575 ft | 329 kts | 148° |
| 2026-05-05 20:49 | 52.05668 | -1.66186 | 19294 ft | 328 kts | 148° |
| 2026-05-05 20:49 | 52.03759 | -1.64162 | 19011 ft | 328 kts | 148° |
| 2026-05-05 20:50 | 52.01850 | -1.62140 | 18713 ft | 327 kts | 148° |
| 2026-05-05 20:50 | 51.99973 | -1.60153 | 18429 ft | 326 kts | 148° |
| 2026-05-05 20:50 | 51.98069 | -1.58140 | 18142 ft | 326 kts | 148° |
| 2026-05-05 20:50 | 51.96174 | -1.56138 | 17825 ft | 325 kts | 148° |
| 2026-05-05 20:51 | 51.94283 | -1.54141 | 17537 ft | 324 kts | 148° |
| 2026-05-05 20:51 | 51.92398 | -1.52154 | 17230 ft | 322 kts | 148° |
| 2026-05-05 20:51 | 51.90525 | -1.50182 | 16947 ft | 321 kts | 148° |
| 2026-05-05 20:51 | 51.88659 | -1.48218 | 16679 ft | 319 kts | 148° |
| 2026-05-05 20:52 | 51.86803 | -1.46267 | 16404 ft | 317 kts | 148° |
| 2026-05-05 20:52 | 51.84956 | -1.44326 | 16126 ft | 316 kts | 148° |
| 2026-05-05 20:52 | 51.83118 | -1.42397 | 15849 ft | 314 kts | 148° |
| 2026-05-05 20:52 | 51.81311 | -1.40502 | 15592 ft | 313 kts | 148° |
| 2026-05-05 20:53 | 51.79485 | -1.38591 | 15319 ft | 312 kts | 148° |
| 2026-05-05 20:53 | 51.77666 | -1.36690 | 15052 ft | 311 kts | 148° |
| 2026-05-05 20:53 | 51.75865 | -1.34808 | 14909 ft | 306 kts | 148° |
| 2026-05-05 20:53 | 51.74091 | -1.32956 | 14784 ft | 302 kts | 148° |
| 2026-05-05 20:54 | 51.72325 | -1.31114 | 14683 ft | 305 kts | 148° |
| 2026-05-05 20:54 | 51.70529 | -1.29243 | 14571 ft | 310 kts | 148° |
| 2026-05-05 20:54 | 51.68707 | -1.27347 | 14422 ft | 312 kts | 148° |
| 2026-05-05 20:54 | 51.66918 | -1.25484 | 14303 ft | 309 kts | 148° |
| 2026-05-05 20:55 | 51.65119 | -1.23614 | 14178 ft | 308 kts | 148° |
| 2026-05-05 20:55 | 51.63315 | -1.21740 | 14065 ft | 309 kts | 148° |
| 2026-05-05 20:55 | 51.61502 | -1.19859 | 13950 ft | 311 kts | 148° |
| 2026-05-05 20:55 | 51.59682 | -1.17972 | 13831 ft | 311 kts | 148° |
| 2026-05-05 20:56 | 51.57862 | -1.16087 | 13707 ft | 312 kts | 148° |
| 2026-05-05 20:56 | 51.56039 | -1.14201 | 13575 ft | 311 kts | 148° |
| 2026-05-05 20:56 | 51.54219 | -1.12319 | 13454 ft | 311 kts | 148° |
| 2026-05-05 20:56 | 51.52407 | -1.10447 | 13323 ft | 310 kts | 148° |
| 2026-05-05 20:57 | 51.50619 | -1.08602 | 13207 ft | 309 kts | 148° |
| 2026-05-05 20:57 | 51.48818 | -1.06746 | 13090 ft | 307 kts | 148° |
| 2026-05-05 20:57 | 51.47025 | -1.04898 | 12971 ft | 306 kts | 148° |
| 2026-05-05 20:57 | 51.45235 | -1.03057 | 12854 ft | 305 kts | 148° |
| 2026-05-05 20:58 | 51.43455 | -1.01227 | 12743 ft | 304 kts | 148° |
| 2026-05-05 20:58 | 51.41678 | -0.99402 | 12618 ft | 303 kts | 148° |
| 2026-05-05 20:58 | 51.39906 | -0.97584 | 12510 ft | 302 kts | 148° |
| 2026-05-05 20:58 | 51.38139 | -0.95773 | 12391 ft | 302 kts | 148° |
| 2026-05-05 20:59 | 51.36372 | -0.93963 | 12272 ft | 301 kts | 147° |
| 2026-05-05 20:59 | 51.34632 | -0.92183 | 12159 ft | 301 kts | 147° |
| 2026-05-05 20:59 | 51.32871 | -0.90382 | 12046 ft | 301 kts | 147° |
| 2026-05-05 20:59 | 51.31108 | -0.88582 | 11936 ft | 300 kts | 147° |
| 2026-05-05 21:00 | 51.29348 | -0.86786 | 11827 ft | 300 kts | 146° |
| 2026-05-05 21:00 | 51.27591 | -0.84995 | 11720 ft | 300 kts | 146° |
| 2026-05-05 21:00 | 51.25834 | -0.83205 | 11602 ft | 300 kts | 146° |
| 2026-05-05 21:00 | 51.24078 | -0.81418 | 11494 ft | 299 kts | 146° |
| 2026-05-05 21:01 | 51.22320 | -0.79630 | 11376 ft | 299 kts | 146° |
| 2026-05-05 21:01 | 51.20565 | -0.77848 | 11262 ft | 299 kts | 146° |
| 2026-05-05 21:01 | 51.18832 | -0.76088 | 11146 ft | 299 kts | 146° |
| 2026-05-05 21:01 | 51.17076 | -0.74308 | 11036 ft | 299 kts | 146° |
| 2026-05-05 21:02 | 51.15322 | -0.72531 | 10920 ft | 299 kts | 146° |
| 2026-05-05 21:02 | 51.13569 | -0.70756 | 10800 ft | 299 kts | 146° |
| 2026-05-05 21:02 | 51.11818 | -0.68984 | 10689 ft | 298 kts | 146° |
| 2026-05-05 21:02 | 51.10065 | -0.67213 | 10574 ft | 298 kts | 146° |
| 2026-05-05 21:03 | 51.08317 | -0.65449 | 10459 ft | 298 kts | 146° |
| 2026-05-05 21:03 | 51.06570 | -0.63686 | 10348 ft | 297 kts | 146° |
| 2026-05-05 21:03 | 51.05072 | -0.61474 | 10204 ft | 294 kts | 121° |
| 2026-05-05 21:03 | 51.04129 | -0.58628 | 10143 ft | 290 kts | 114° |
| 2026-05-05 21:04 | 51.03268 | -0.55802 | 9958 ft | 288 kts | 114° |
| 2026-05-05 21:04 | 51.02388 | -0.52943 | 9699 ft | 287 kts | 114° |
| 2026-05-05 21:04 | 51.01510 | -0.50114 | 9433 ft | 285 kts | 114° |
| 2026-05-05 21:04 | 51.00632 | -0.47303 | 9167 ft | 284 kts | 114° |
| 2026-05-05 21:05 | 50.99753 | -0.44504 | 8904 ft | 282 kts | 114° |
| 2026-05-05 21:05 | 50.98876 | -0.41720 | 8639 ft | 281 kts | 114° |
| 2026-05-05 21:05 | 50.98005 | -0.38959 | 8382 ft | 280 kts | 114° |
| 2026-05-05 21:05 | 50.97147 | -0.36239 | 8138 ft | 278 kts | 114° |
| 2026-05-05 21:06 | 50.96283 | -0.33504 | 7890 ft | 276 kts | 114° |
| 2026-05-05 21:06 | 50.95665 | -0.30659 | 7660 ft | 271 kts | 101° |
| 2026-05-05 21:06 | 50.95240 | -0.27759 | 7456 ft | 269 kts | 101° |
| 2026-05-05 21:06 | 50.94816 | -0.24887 | 7245 ft | 266 kts | 101° |
| 2026-05-05 21:07 | 50.94396 | -0.22043 | 7032 ft | 264 kts | 101° |
| 2026-05-05 21:07 | 50.93978 | -0.19218 | 6824 ft | 262 kts | 101° |
| 2026-05-05 21:07 | 50.93874 | -0.16386 | 6585 ft | 256 kts | 76° |
| 2026-05-05 21:07 | 50.94624 | -0.13902 | 6379 ft | 249 kts | 46° |
| 2026-05-05 21:08 | 50.96026 | -0.12398 | 6151 ft | 244 kts | 17° |
| 2026-05-05 21:08 | 50.97685 | -0.12267 | 6020 ft | 239 kts | 346° |
| 2026-05-05 21:08 | 50.99117 | -0.13507 | 5862 ft | 237 kts | 316° |
| 2026-05-05 21:08 | 50.99925 | -0.15726 | 5662 ft | 239 kts | 285° |
| 2026-05-05 21:09 | 51.00058 | -0.18365 | 5438 ft | 241 kts | 272° |
| 2026-05-05 21:09 | 51.00039 | -0.21025 | 5171 ft | 242 kts | 271° |
| 2026-05-05 21:09 | 51.00004 | -0.23685 | 4973 ft | 240 kts | 271° |
| 2026-05-05 21:09 | 50.99967 | -0.26331 | 4736 ft | 240 kts | 271° |
| 2026-05-05 21:10 | 50.99927 | -0.28985 | 4472 ft | 241 kts | 271° |
| 2026-05-05 21:10 | 50.99889 | -0.31650 | 4216 ft | 242 kts | 271° |
| 2026-05-05 21:10 | 50.99854 | -0.34313 | 3988 ft | 239 kts | 271° |
| 2026-05-05 21:10 | 50.99822 | -0.36918 | 3727 ft | 234 kts | 270° |
| 2026-05-05 21:11 | 50.99810 | -0.39443 | 3628 ft | 225 kts | 276° |
| 2026-05-05 21:11 | 51.00320 | -0.41712 | 3534 ft | 217 kts | 310° |
| 2026-05-05 21:11 | 51.01451 | -0.43195 | 3511 ft | 214 kts | 329° |
| 2026-05-05 21:11 | 51.02711 | -0.44429 | 3474 ft | 210 kts | 330° |
| 2026-05-05 21:12 | 51.03913 | -0.45587 | 3402 ft | 195 kts | 330° |
| 2026-05-05 21:12 | 51.05041 | -0.46671 | 3267 ft | 186 kts | 330° |
| 2026-05-05 21:12 | 51.06136 | -0.47715 | 3134 ft | 183 kts | 332° |
| 2026-05-05 21:12 | 51.07343 | -0.48192 | 3010 ft | 180 kts | 9° |
| 2026-05-05 21:13 | 51.08425 | -0.47291 | 3009 ft | 180 kts | 46° |
| 2026-05-05 21:13 | 51.09249 | -0.45765 | 2974 ft | 184 kts | 51° |
| 2026-05-05 21:13 | 51.10047 | -0.44169 | 2879 ft | 183 kts | 52° |
| 2026-05-05 21:13 | 51.10718 | -0.42511 | 2846 ft | 173 kts | 60° |
| 2026-05-05 21:14 | 51.11250 | -0.40849 | 2665 ft | 165 kts | 63° |
| 2026-05-05 21:14 | 51.11697 | -0.39249 | 2553 ft | 157 kts | 67° |
| 2026-05-05 21:14 | 51.12072 | -0.37640 | 2293 ft | 153 kts | 72° |
| 2026-05-05 21:14 | 51.12356 | -0.36053 | 2067 ft | 152 kts | 75° |
| 2026-05-05 21:15 | 51.12653 | -0.34215 | 2007 ft | 180 kts | 76° |
| 2026-05-05 21:15 | 51.12949 | -0.32296 | 1832 ft | 171 kts | 77° |
| 2026-05-05 21:15 | 51.13198 | -0.30562 | 1694 ft | 149 kts | 78° |
| 2026-05-05 21:15 | 51.13406 | -0.29000 | 1387 ft | 140 kts | 78° |
| 2026-05-05 21:16 | 51.13629 | -0.27511 | 1108 ft | 139 kts | 77° |
| 2026-05-05 21:16 | 51.13833 | -0.26000 | 906 ft | 143 kts | 78° |
| 2026-05-05 21:16 | 51.14047 | -0.24453 | 702 ft | 142 kts | 76° |
| 2026-05-05 21:16 | 51.14268 | -0.22925 | 526 ft | 138 kts | 76° |
| 2026-05-05 21:17 | 51.14479 | -0.21448 | 352 ft | 135 kts | 77° |
| 2026-05-05 21:17 | 51.14677 | -0.20027 | 213 ft | 124 kts | 76° |
| 2026-05-05 21:17 | 51.14835 | -0.18858 | 204 ft | 83 kts | 79° |
| 2026-05-05 21:17 | 51.14920 | -0.18245 | 202 ft | 35 kts | 77° |
| 2026-05-05 21:18 | 51.14974 | -0.17983 | 211 ft | 21 kts | 62° |
| 2026-05-05 21:18 | 51.15027 | -0.17858 | 213 ft | 9 kts | 51° |
| 2026-05-05 21:18 | 51.15039 | -0.17833 | 209 ft | 1 kts | 52° |
| 2026-05-05 21:18 | 51.15043 | -0.17825 | 209 ft | 2 kts | 52° |
| 2026-05-05 21:19 | 51.15068 | -0.17775 | 205 ft | 6 kts | 52° |
| 2026-05-05 21:19 | 51.15080 | -0.17761 | 208 ft | 0 kts | 26° |
| 2026-05-05 21:20 | 51.15087 | -0.17757 | 205 ft | 3 kts | 18° |
| 2026-05-05 21:20 | 51.15110 | -0.17756 | 206 ft | 4 kts | 355° |
| 2026-05-05 21:20 | 51.15148 | -0.17762 | 207 ft | 9 kts | 352° |
| 2026-05-05 21:21 | 51.15211 | -0.17775 | 210 ft | 5 kts | 353° |
| 2026-05-05 21:21 | 51.15247 | -0.17763 | 211 ft | 6 kts | 36° |
| 2026-05-05 21:21 | 51.15265 | -0.17705 | 206 ft | 6 kts | 73° |
| 2026-05-05 21:21 | 51.15275 | -0.17641 | 209 ft | 6 kts | 77° |
| 2026-05-05 21:22 | 51.15285 | -0.17573 | 205 ft | 7 kts | 77° |
| 2026-05-05 21:22 | 51.15296 | -0.17491 | 204 ft | 9 kts | 81° |
| 2026-05-05 21:22 | 51.15312 | -0.17391 | 210 ft | 10 kts | 51° |
| 2026-05-05 21:22 | 51.15364 | -0.17314 | 209 ft | 11 kts | 71° |
| 2026-05-05 21:23 | 51.15388 | -0.17193 | 205 ft | 9 kts | 73° |
| 2026-05-05 21:23 | 51.15412 | -0.17095 | 205 ft | 10 kts | 75° |
| 2026-05-05 21:23 | 51.15427 | -0.16993 | 202 ft | 9 kts | 77° |
| 2026-05-05 21:23 | 51.15441 | -0.16903 | 202 ft | 5 kts | 65° |
| 2026-05-05 21:24 | 51.15467 | -0.16890 | 205 ft | 4 kts | 355° |
| 2026-05-05 21:24 | 51.15490 | -0.16895 | 205 ft | 2 kts | 353° |